sensor_id;sensor_type;location;lat;lon;timestamp;P1;durP1;ratioP1;P2;durP2;ratioP2
40997;SDS011;26740;45.944;12.480;2023-11-21T00:02:04;10.75;;;8.10;;
40997;SDS011;26740;45.944;12.480;2023-11-21T00:04:30;10.55;;;8.60;;
40997;SDS011;26740;45.944;12.480;2023-11-21T00:06:55;12.05;;;7.20;;
40997;SDS011;26740;45.944;12.480;2023-11-21T00:09:21;10.02;;;7.55;;
40997;SDS011;26740;45.944;12.480;2023-11-21T00:11:46;11.05;;;7.70;;
40997;SDS011;26740;45.944;12.480;2023-11-21T00:14:12;11.30;;;7.72;;
40997;SDS011;26740;45.944;12.480;2023-11-21T00:16:40;10.50;;;7.38;;
40997;SDS011;26740;45.944;12.480;2023-11-21T00:19:06;9.35;;;7.00;;
40997;SDS011;26740;45.944;12.480;2023-11-21T00:21:32;9.57;;;7.60;;
40997;SDS011;26740;45.944;12.480;2023-11-21T00:23:57;11.80;;;7.50;;
40997;SDS011;26740;45.944;12.480;2023-11-21T00:26:23;10.73;;;7.70;;
40997;SDS011;26740;45.944;12.480;2023-11-21T00:28:49;10.57;;;6.70;;
40997;SDS011;26740;45.944;12.480;2023-11-21T00:31:15;12.13;;;8.20;;
40997;SDS011;26740;45.944;12.480;2023-11-21T00:33:41;10.48;;;7.97;;
40997;SDS011;26740;45.944;12.480;2023-11-21T00:36:07;12.95;;;7.90;;
40997;SDS011;26740;45.944;12.480;2023-11-21T00:38:37;13.48;;;7.72;;
40997;SDS011;26740;45.944;12.480;2023-11-21T00:41:06;11.82;;;7.50;;
40997;SDS011;26740;45.944;12.480;2023-11-21T00:43:31;9.02;;;7.18;;
40997;SDS011;26740;45.944;12.480;2023-11-21T00:45:58;11.77;;;7.22;;
40997;SDS011;26740;45.944;12.480;2023-11-21T00:48:24;11.95;;;7.53;;
40997;SDS011;26740;45.944;12.480;2023-11-21T00:50:50;10.82;;;6.68;;
40997;SDS011;26740;45.944;12.480;2023-11-21T00:53:15;10.52;;;6.88;;
40997;SDS011;26740;45.944;12.480;2023-11-21T00:55:41;11.93;;;7.20;;
40997;SDS011;26740;45.944;12.480;2023-11-21T00:58:07;9.27;;;6.97;;
40997;SDS011;26740;45.944;12.480;2023-11-21T01:00:33;10.52;;;7.18;;
40997;SDS011;26740;45.944;12.480;2023-11-21T01:02:59;11.93;;;8.15;;
40997;SDS011;26740;45.944;12.480;2023-11-21T01:05:25;11.13;;;6.03;;
40997;SDS011;26740;45.944;12.480;2023-11-21T01:07:52;8.48;;;6.45;;
40997;SDS011;26740;45.944;12.480;2023-11-21T01:10:17;8.82;;;7.20;;
40997;SDS011;26740;45.944;12.480;2023-11-21T01:12:43;10.50;;;6.75;;
40997;SDS011;26740;45.944;12.480;2023-11-21T01:15:08;11.77;;;7.78;;
40997;SDS011;26740;45.944;12.480;2023-11-21T01:17:37;14.88;;;6.75;;
40997;SDS011;26740;45.944;12.480;2023-11-21T01:20:03;12.88;;;7.38;;
40997;SDS011;26740;45.944;12.480;2023-11-21T01:22:36;12.27;;;6.85;;
40997;SDS011;26740;45.944;12.480;2023-11-21T01:25:01;15.98;;;6.75;;
40997;SDS011;26740;45.944;12.480;2023-11-21T01:27:29;11.60;;;7.68;;
40997;SDS011;26740;45.944;12.480;2023-11-21T01:29:55;12.32;;;7.70;;
40997;SDS011;26740;45.944;12.480;2023-11-21T01:32:20;10.23;;;6.80;;
40997;SDS011;26740;45.944;12.480;2023-11-21T01:34:47;16.38;;;7.05;;
40997;SDS011;26740;45.944;12.480;2023-11-21T01:37:14;8.40;;;6.03;;
40997;SDS011;26740;45.944;12.480;2023-11-21T01:39:39;11.48;;;7.22;;
40997;SDS011;26740;45.944;12.480;2023-11-21T01:42:05;11.15;;;6.07;;
40997;SDS011;26740;45.944;12.480;2023-11-21T01:44:31;14.35;;;7.55;;
40997;SDS011;26740;45.944;12.480;2023-11-21T01:46:56;11.15;;;7.03;;
40997;SDS011;26740;45.944;12.480;2023-11-21T01:49:22;10.20;;;6.63;;
40997;SDS011;26740;45.944;12.480;2023-11-21T01:51:49;11.18;;;6.53;;
40997;SDS011;26740;45.944;12.480;2023-11-21T01:54:17;12.15;;;6.50;;
40997;SDS011;26740;45.944;12.480;2023-11-21T01:56:46;11.90;;;6.28;;
40997;SDS011;26740;45.944;12.480;2023-11-21T01:59:14;8.45;;;6.63;;
40997;SDS011;26740;45.944;12.480;2023-11-21T02:01:48;9.95;;;6.13;;
40997;SDS011;26740;45.944;12.480;2023-11-21T02:04:21;9.73;;;6.30;;
40997;SDS011;26740;45.944;12.480;2023-11-21T02:06:47;8.52;;;6.15;;
40997;SDS011;26740;45.944;12.480;2023-11-21T02:09:12;7.25;;;6.03;;
40997;SDS011;26740;45.944;12.480;2023-11-21T02:11:40;10.00;;;5.88;;
40997;SDS011;26740;45.944;12.480;2023-11-21T02:14:06;5.88;;;5.05;;
40997;SDS011;26740;45.944;12.480;2023-11-21T02:16:34;7.57;;;6.03;;
40997;SDS011;26740;45.944;12.480;2023-11-21T02:19:00;7.50;;;5.72;;
40997;SDS011;26740;45.944;12.480;2023-11-21T02:21:28;6.60;;;4.57;;
40997;SDS011;26740;45.944;12.480;2023-11-21T02:23:55;7.03;;;4.65;;
40997;SDS011;26740;45.944;12.480;2023-11-21T02:26:21;5.60;;;4.13;;
40997;SDS011;26740;45.944;12.480;2023-11-21T02:28:46;5.88;;;3.90;;
40997;SDS011;26740;45.944;12.480;2023-11-21T02:31:12;4.97;;;3.85;;
40997;SDS011;26740;45.944;12.480;2023-11-21T02:33:38;4.45;;;3.45;;
40997;SDS011;26740;45.944;12.480;2023-11-21T02:36:04;7.43;;;3.83;;
40997;SDS011;26740;45.944;12.480;2023-11-21T02:38:30;3.78;;;3.15;;
40997;SDS011;26740;45.944;12.480;2023-11-21T02:40:57;4.13;;;3.20;;
40997;SDS011;26740;45.944;12.480;2023-11-21T02:43:23;3.35;;;3.00;;
40997;SDS011;26740;45.944;12.480;2023-11-21T02:45:49;4.75;;;3.13;;
40997;SDS011;26740;45.944;12.480;2023-11-21T02:48:14;4.63;;;3.20;;
40997;SDS011;26740;45.944;12.480;2023-11-21T02:50:40;4.57;;;2.72;;
40997;SDS011;26740;45.944;12.480;2023-11-21T02:53:05;3.15;;;2.88;;
40997;SDS011;26740;45.944;12.480;2023-11-21T02:55:31;3.35;;;2.90;;
40997;SDS011;26740;45.944;12.480;2023-11-21T02:58:00;2.28;;;2.08;;
40997;SDS011;26740;45.944;12.480;2023-11-21T03:00:26;3.42;;;3.00;;
40997;SDS011;26740;45.944;12.480;2023-11-21T03:02:52;3.95;;;2.95;;
40997;SDS011;26740;45.944;12.480;2023-11-21T03:05:20;2.95;;;2.60;;
40997;SDS011;26740;45.944;12.480;2023-11-21T03:07:46;3.75;;;2.83;;
40997;SDS011;26740;45.944;12.480;2023-11-21T03:10:12;3.65;;;2.45;;
40997;SDS011;26740;45.944;12.480;2023-11-21T03:12:38;4.20;;;3.08;;
40997;SDS011;26740;45.944;12.480;2023-11-21T03:15:06;3.38;;;2.80;;
40997;SDS011;26740;45.944;12.480;2023-11-21T03:17:33;3.90;;;3.35;;
40997;SDS011;26740;45.944;12.480;2023-11-21T03:20:02;4.80;;;2.50;;
40997;SDS011;26740;45.944;12.480;2023-11-21T03:22:28;6.07;;;2.90;;
40997;SDS011;26740;45.944;12.480;2023-11-21T03:24:54;4.13;;;2.63;;
40997;SDS011;26740;45.944;12.480;2023-11-21T03:27:20;3.30;;;2.88;;
40997;SDS011;26740;45.944;12.480;2023-11-21T03:29:45;5.35;;;2.88;;
40997;SDS011;26740;45.944;12.480;2023-11-21T03:32:12;2.08;;;1.88;;
40997;SDS011;26740;45.944;12.480;2023-11-21T03:34:52;3.55;;;2.50;;
40997;SDS011;26740;45.944;12.480;2023-11-21T03:37:23;4.20;;;2.70;;
40997;SDS011;26740;45.944;12.480;2023-11-21T03:39:50;6.90;;;2.75;;
40997;SDS011;26740;45.944;12.480;2023-11-21T03:42:16;4.32;;;3.03;;
40997;SDS011;26740;45.944;12.480;2023-11-21T03:44:41;3.75;;;2.50;;
40997;SDS011;26740;45.944;12.480;2023-11-21T03:47:07;3.25;;;2.45;;
40997;SDS011;26740;45.944;12.480;2023-11-21T03:49:32;2.97;;;2.78;;
40997;SDS011;26740;45.944;12.480;2023-11-21T03:51:58;3.17;;;2.58;;
40997;SDS011;26740;45.944;12.480;2023-11-21T03:54:24;2.70;;;2.25;;
40997;SDS011;26740;45.944;12.480;2023-11-21T03:56:49;4.57;;;2.67;;
40997;SDS011;26740;45.944;12.480;2023-11-21T03:59:15;5.22;;;2.42;;
40997;SDS011;26740;45.944;12.480;2023-11-21T04:01:41;2.38;;;2.10;;
40997;SDS011;26740;45.944;12.480;2023-11-21T04:04:06;2.83;;;2.03;;
40997;SDS011;26740;45.944;12.480;2023-11-21T04:06:32;2.13;;;1.90;;
40997;SDS011;26740;45.944;12.480;2023-11-21T04:08:58;7.60;;;3.50;;
40997;SDS011;26740;45.944;12.480;2023-11-21T04:11:24;3.28;;;2.17;;
40997;SDS011;26740;45.944;12.480;2023-11-21T04:13:49;3.92;;;2.53;;
40997;SDS011;26740;45.944;12.480;2023-11-21T04:16:15;4.50;;;2.30;;
40997;SDS011;26740;45.944;12.480;2023-11-21T04:18:41;3.90;;;2.50;;
40997;SDS011;26740;45.944;12.480;2023-11-21T04:21:06;4.85;;;1.95;;
40997;SDS011;26740;45.944;12.480;2023-11-21T04:23:33;3.33;;;2.40;;
40997;SDS011;26740;45.944;12.480;2023-11-21T04:25:59;6.03;;;2.95;;
40997;SDS011;26740;45.944;12.480;2023-11-21T04:28:28;3.97;;;2.90;;
40997;SDS011;26740;45.944;12.480;2023-11-21T04:30:54;6.88;;;2.88;;
40997;SDS011;26740;45.944;12.480;2023-11-21T04:33:20;6.57;;;2.33;;
40997;SDS011;26740;45.944;12.480;2023-11-21T04:35:46;2.80;;;2.35;;
40997;SDS011;26740;45.944;12.480;2023-11-21T04:38:12;3.10;;;2.35;;
40997;SDS011;26740;45.944;12.480;2023-11-21T04:40:38;3.28;;;1.75;;
40997;SDS011;26740;45.944;12.480;2023-11-21T04:43:03;5.65;;;2.47;;
40997;SDS011;26740;45.944;12.480;2023-11-21T04:45:29;4.45;;;2.40;;
40997;SDS011;26740;45.944;12.480;2023-11-21T04:47:55;3.33;;;2.30;;
40997;SDS011;26740;45.944;12.480;2023-11-21T04:50:21;9.63;;;2.90;;
40997;SDS011;26740;45.944;12.480;2023-11-21T04:52:47;10.85;;;3.45;;
40997;SDS011;26740;45.944;12.480;2023-11-21T04:55:12;8.13;;;3.80;;
40997;SDS011;26740;45.944;12.480;2023-11-21T04:57:38;3.97;;;2.72;;
40997;SDS011;26740;45.944;12.480;2023-11-21T05:00:06;8.05;;;3.15;;
40997;SDS011;26740;45.944;12.480;2023-11-21T05:02:34;10.23;;;6.78;;
40997;SDS011;26740;45.944;12.480;2023-11-21T05:05:00;9.30;;;5.03;;
40997;SDS011;26740;45.944;12.480;2023-11-21T05:07:26;5.72;;;4.72;;
40997;SDS011;26740;45.944;12.480;2023-11-21T05:09:55;6.72;;;4.80;;
40997;SDS011;26740;45.944;12.480;2023-11-21T05:12:21;5.82;;;4.43;;
40997;SDS011;26740;45.944;12.480;2023-11-21T05:14:50;5.32;;;4.82;;
40997;SDS011;26740;45.944;12.480;2023-11-21T05:17:16;8.35;;;4.82;;
40997;SDS011;26740;45.944;12.480;2023-11-21T05:19:42;5.18;;;4.68;;
40997;SDS011;26740;45.944;12.480;2023-11-21T05:22:11;6.45;;;4.57;;
40997;SDS011;26740;45.944;12.480;2023-11-21T05:24:37;7.05;;;5.47;;
40997;SDS011;26740;45.944;12.480;2023-11-21T05:27:04;9.75;;;5.75;;
40997;SDS011;26740;45.944;12.480;2023-11-21T05:29:30;7.15;;;5.47;;
40997;SDS011;26740;45.944;12.480;2023-11-21T05:31:56;6.38;;;5.15;;
40997;SDS011;26740;45.944;12.480;2023-11-21T05:34:21;6.10;;;5.50;;
40997;SDS011;26740;45.944;12.480;2023-11-21T05:36:49;8.18;;;4.97;;
40997;SDS011;26740;45.944;12.480;2023-11-21T05:39:15;6.15;;;5.55;;
40997;SDS011;26740;45.944;12.480;2023-11-21T05:41:42;6.15;;;5.18;;
40997;SDS011;26740;45.944;12.480;2023-11-21T05:44:08;7.50;;;5.55;;
40997;SDS011;26740;45.944;12.480;2023-11-21T05:46:34;7.93;;;5.68;;
40997;SDS011;26740;45.944;12.480;2023-11-21T05:49:00;6.50;;;5.50;;
40997;SDS011;26740;45.944;12.480;2023-11-21T05:51:25;8.57;;;5.95;;
40997;SDS011;26740;45.944;12.480;2023-11-21T05:53:51;6.82;;;6.13;;
40997;SDS011;26740;45.944;12.480;2023-11-21T05:56:17;6.40;;;5.68;;
40997;SDS011;26740;45.944;12.480;2023-11-21T05:58:43;11.15;;;7.00;;
40997;SDS011;26740;45.944;12.480;2023-11-21T06:01:08;9.15;;;6.45;;
40997;SDS011;26740;45.944;12.480;2023-11-21T06:03:38;8.35;;;5.75;;
40997;SDS011;26740;45.944;12.480;2023-11-21T06:06:04;11.65;;;6.80;;
40997;SDS011;26740;45.944;12.480;2023-11-21T06:08:30;6.72;;;6.03;;
40997;SDS011;26740;45.944;12.480;2023-11-21T06:10:55;7.72;;;6.03;;
40997;SDS011;26740;45.944;12.480;2023-11-21T06:13:21;8.80;;;6.88;;
40997;SDS011;26740;45.944;12.480;2023-11-21T06:15:50;8.25;;;5.68;;
40997;SDS011;26740;45.944;12.480;2023-11-21T06:18:16;8.50;;;6.40;;
40997;SDS011;26740;45.944;12.480;2023-11-21T06:20:44;7.57;;;5.80;;
40997;SDS011;26740;45.944;12.480;2023-11-21T06:23:10;7.53;;;6.15;;
40997;SDS011;26740;45.944;12.480;2023-11-21T06:25:36;10.07;;;6.25;;
40997;SDS011;26740;45.944;12.480;2023-11-21T06:28:02;9.88;;;6.22;;
40997;SDS011;26740;45.944;12.480;2023-11-21T06:30:27;7.55;;;6.60;;
40997;SDS011;26740;45.944;12.480;2023-11-21T06:32:54;6.82;;;6.10;;
40997;SDS011;26740;45.944;12.480;2023-11-21T06:35:21;6.75;;;5.75;;
40997;SDS011;26740;45.944;12.480;2023-11-21T06:37:47;7.72;;;6.93;;
40997;SDS011;26740;45.944;12.480;2023-11-21T06:40:13;7.53;;;6.00;;
40997;SDS011;26740;45.944;12.480;2023-11-21T06:42:40;9.88;;;6.68;;
40997;SDS011;26740;45.944;12.480;2023-11-21T06:45:06;8.23;;;6.80;;
40997;SDS011;26740;45.944;12.480;2023-11-21T06:47:33;12.07;;;7.68;;
40997;SDS011;26740;45.944;12.480;2023-11-21T06:49:58;10.07;;;8.35;;
40997;SDS011;26740;45.944;12.480;2023-11-21T06:52:25;8.85;;;7.35;;
40997;SDS011;26740;45.944;12.480;2023-11-21T06:54:51;9.13;;;6.53;;
40997;SDS011;26740;45.944;12.480;2023-11-21T06:57:17;7.82;;;6.40;;
40997;SDS011;26740;45.944;12.480;2023-11-21T06:59:42;8.05;;;6.35;;
40997;SDS011;26740;45.944;12.480;2023-11-21T07:02:08;8.77;;;6.43;;
40997;SDS011;26740;45.944;12.480;2023-11-21T07:04:34;14.43;;;7.05;;
40997;SDS011;26740;45.944;12.480;2023-11-21T07:07:03;9.77;;;6.82;;
40997;SDS011;26740;45.944;12.480;2023-11-21T07:09:29;12.60;;;7.28;;
40997;SDS011;26740;45.944;12.480;2023-11-21T07:11:56;8.63;;;6.88;;
40997;SDS011;26740;45.944;12.480;2023-11-21T07:14:22;14.80;;;7.90;;
40997;SDS011;26740;45.944;12.480;2023-11-21T07:16:48;15.43;;;7.45;;
40997;SDS011;26740;45.944;12.480;2023-11-21T07:19:13;21.60;;;8.20;;
40997;SDS011;26740;45.944;12.480;2023-11-21T07:21:39;17.23;;;8.50;;
40997;SDS011;26740;45.944;12.480;2023-11-21T07:24:05;13.48;;;6.82;;
40997;SDS011;26740;45.944;12.480;2023-11-21T07:26:32;11.60;;;7.78;;
40997;SDS011;26740;45.944;12.480;2023-11-21T07:28:59;14.73;;;8.68;;
40997;SDS011;26740;45.944;12.480;2023-11-21T07:31:26;13.02;;;7.22;;
40997;SDS011;26740;45.944;12.480;2023-11-21T07:33:52;9.27;;;6.72;;
40997;SDS011;26740;45.944;12.480;2023-11-21T07:36:18;11.23;;;7.82;;
40997;SDS011;26740;45.944;12.480;2023-11-21T07:38:46;12.65;;;7.55;;
40997;SDS011;26740;45.944;12.480;2023-11-21T07:41:12;13.15;;;8.13;;
40997;SDS011;26740;45.944;12.480;2023-11-21T07:43:41;12.10;;;8.32;;
40997;SDS011;26740;45.944;12.480;2023-11-21T07:46:07;17.83;;;9.02;;
40997;SDS011;26740;45.944;12.480;2023-11-21T07:48:33;13.80;;;8.02;;
40997;SDS011;26740;45.944;12.480;2023-11-21T07:51:00;11.50;;;7.22;;
40997;SDS011;26740;45.944;12.480;2023-11-21T07:53:28;7.32;;;6.55;;
40997;SDS011;26740;45.944;12.480;2023-11-21T07:55:58;6.97;;;5.85;;
40997;SDS011;26740;45.944;12.480;2023-11-21T07:58:24;6.63;;;5.93;;
40997;SDS011;26740;45.944;12.480;2023-11-21T08:00:50;7.38;;;4.65;;
40997;SDS011;26740;45.944;12.480;2023-11-21T08:03:16;5.80;;;4.40;;
40997;SDS011;26740;45.944;12.480;2023-11-21T08:05:41;7.32;;;4.70;;
40997;SDS011;26740;45.944;12.480;2023-11-21T08:08:08;5.10;;;4.60;;
40997;SDS011;26740;45.944;12.480;2023-11-21T08:10:34;6.20;;;3.67;;
40997;SDS011;26740;45.944;12.480;2023-11-21T08:13:01;5.30;;;3.60;;
40997;SDS011;26740;45.944;12.480;2023-11-21T08:15:27;4.30;;;3.30;;
40997;SDS011;26740;45.944;12.480;2023-11-21T08:17:52;3.40;;;3.10;;
40997;SDS011;26740;45.944;12.480;2023-11-21T08:20:18;6.28;;;2.65;;
40997;SDS011;26740;45.944;12.480;2023-11-21T08:22:44;4.18;;;2.80;;
40997;SDS011;26740;45.944;12.480;2023-11-21T08:25:10;4.68;;;3.08;;
40997;SDS011;26740;45.944;12.480;2023-11-21T08:27:36;5.97;;;2.65;;
40997;SDS011;26740;45.944;12.480;2023-11-21T08:30:02;7.40;;;2.50;;
40997;SDS011;26740;45.944;12.480;2023-11-21T08:32:29;4.28;;;2.65;;
40997;SDS011;26740;45.944;12.480;2023-11-21T08:34:57;6.93;;;3.10;;
40997;SDS011;26740;45.944;12.480;2023-11-21T08:37:23;3.05;;;2.42;;
40997;SDS011;26740;45.944;12.480;2023-11-21T08:39:49;3.67;;;2.65;;
40997;SDS011;26740;45.944;12.480;2023-11-21T08:42:15;3.28;;;2.45;;
40997;SDS011;26740;45.944;12.480;2023-11-21T08:44:40;2.65;;;2.38;;
40997;SDS011;26740;45.944;12.480;2023-11-21T08:47:06;4.05;;;2.05;;
40997;SDS011;26740;45.944;12.480;2023-11-21T08:49:32;5.57;;;1.83;;
40997;SDS011;26740;45.944;12.480;2023-11-21T08:51:58;1.23;;;0.90;;
40997;SDS011;26740;45.944;12.480;2023-11-21T08:54:25;0.88;;;0.50;;
40997;SDS011;26740;45.944;12.480;2023-11-21T08:56:54;2.00;;;0.57;;
40997;SDS011;26740;45.944;12.480;2023-11-21T08:59:20;1.50;;;0.30;;
40997;SDS011;26740;45.944;12.480;2023-11-21T09:01:46;1.17;;;0.38;;
40997;SDS011;26740;45.944;12.480;2023-11-21T09:04:12;1.15;;;0.40;;
40997;SDS011;26740;45.944;12.480;2023-11-21T09:06:38;0.40;;;0.30;;
40997;SDS011;26740;45.944;12.480;2023-11-21T09:09:05;0.57;;;0.28;;
40997;SDS011;26740;45.944;12.480;2023-11-21T09:11:34;2.42;;;0.57;;
40997;SDS011;26740;45.944;12.480;2023-11-21T09:14:00;0.40;;;0.30;;
40997;SDS011;26740;45.944;12.480;2023-11-21T09:16:26;0.20;;;0.20;;
40997;SDS011;26740;45.944;12.480;2023-11-21T09:18:52;0.60;;;0.30;;
40997;SDS011;26740;45.944;12.480;2023-11-21T09:21:17;0.70;;;0.30;;
40997;SDS011;26740;45.944;12.480;2023-11-21T09:23:46;0.47;;;0.22;;
40997;SDS011;26740;45.944;12.480;2023-11-21T09:26:12;0.85;;;0.20;;
40997;SDS011;26740;45.944;12.480;2023-11-21T09:28:37;1.40;;;0.77;;
40997;SDS011;26740;45.944;12.480;2023-11-21T09:31:04;0.70;;;0.40;;
40997;SDS011;26740;45.944;12.480;2023-11-21T09:33:30;0.70;;;0.32;;
40997;SDS011;26740;45.944;12.480;2023-11-21T09:35:56;0.95;;;0.55;;
40997;SDS011;26740;45.944;12.480;2023-11-21T09:38:22;6.05;;;0.50;;
40997;SDS011;26740;45.944;12.480;2023-11-21T09:40:48;2.72;;;0.60;;
40997;SDS011;26740;45.944;12.480;2023-11-21T09:43:18;0.90;;;0.40;;
40997;SDS011;26740;45.944;12.480;2023-11-21T09:45:47;2.75;;;1.25;;
40997;SDS011;26740;45.944;12.480;2023-11-21T09:48:19;0.90;;;0.55;;
40997;SDS011;26740;45.944;12.480;2023-11-21T09:50:47;1.23;;;0.50;;
40997;SDS011;26740;45.944;12.480;2023-11-21T09:53:13;0.70;;;0.20;;
40997;SDS011;26740;45.944;12.480;2023-11-21T09:55:51;1.17;;;0.30;;
40997;SDS011;26740;45.944;12.480;2023-11-21T09:58:18;0.60;;;0.40;;
40997;SDS011;26740;45.944;12.480;2023-11-21T10:00:45;0.60;;;0.30;;
40997;SDS011;26740;45.944;12.480;2023-11-21T10:03:12;2.70;;;1.75;;
40997;SDS011;26740;45.944;12.480;2023-11-21T10:05:39;1.08;;;0.50;;
40997;SDS011;26740;45.944;12.480;2023-11-21T10:08:07;0.50;;;0.40;;
40997;SDS011;26740;45.944;12.480;2023-11-21T10:10:35;1.27;;;0.40;;
40997;SDS011;26740;45.944;12.480;2023-11-21T10:13:06;3.25;;;0.40;;
40997;SDS011;26740;45.944;12.480;2023-11-21T10:15:35;1.80;;;0.60;;
40997;SDS011;26740;45.944;12.480;2023-11-21T10:18:05;6.68;;;1.00;;
40997;SDS011;26740;45.944;12.480;2023-11-21T10:20:33;1.63;;;1.15;;
40997;SDS011;26740;45.944;12.480;2023-11-21T10:22:59;1.42;;;0.60;;
40997;SDS011;26740;45.944;12.480;2023-11-21T10:25:28;1.20;;;0.40;;
40997;SDS011;26740;45.944;12.480;2023-11-21T10:27:57;1.40;;;0.82;;
40997;SDS011;26740;45.944;12.480;2023-11-21T10:33:02;1.50;;;0.90;;
40997;SDS011;26740;45.944;12.480;2023-11-21T10:35:44;1.25;;;0.57;;
40997;SDS011;26740;45.944;12.480;2023-11-21T10:38:12;0.93;;;0.60;;
40997;SDS011;26740;45.944;12.480;2023-11-21T10:40:42;4.25;;;0.80;;
40997;SDS011;26740;45.944;12.480;2023-11-21T10:43:09;2.15;;;0.50;;
40997;SDS011;26740;45.944;12.480;2023-11-21T10:45:38;1.60;;;0.40;;
40997;SDS011;26740;45.944;12.480;2023-11-21T10:48:05;1.65;;;0.38;;
40997;SDS011;26740;45.944;12.480;2023-11-21T10:50:40;2.47;;;0.40;;
40997;SDS011;26740;45.944;12.480;2023-11-21T10:53:07;1.10;;;0.38;;
40997;SDS011;26740;45.944;12.480;2023-11-21T10:55:33;2.05;;;0.25;;
40997;SDS011;26740;45.944;12.480;2023-11-21T10:58:00;0.60;;;0.30;;
40997;SDS011;26740;45.944;12.480;2023-11-21T11:00:31;0.60;;;0.20;;
40997;SDS011;26740;45.944;12.480;2023-11-21T11:02:58;0.50;;;0.22;;
40997;SDS011;26740;45.944;12.480;2023-11-21T11:05:29;2.85;;;0.50;;
40997;SDS011;26740;45.944;12.480;2023-11-21T11:07:58;0.47;;;0.30;;
40997;SDS011;26740;45.944;12.480;2023-11-21T11:10:27;1.75;;;0.40;;
40997;SDS011;26740;45.944;12.480;2023-11-21T11:12:57;0.88;;;0.50;;
40997;SDS011;26740;45.944;12.480;2023-11-21T11:15:24;1.50;;;0.88;;
40997;SDS011;26740;45.944;12.480;2023-11-21T11:17:50;0.85;;;0.45;;
40997;SDS011;26740;45.944;12.480;2023-11-21T11:20:17;0.50;;;0.20;;
40997;SDS011;26740;45.944;12.480;2023-11-21T11:25:59;0.30;;;0.20;;
40997;SDS011;26740;45.944;12.480;2023-11-21T11:28:53;0.38;;;0.10;;
40997;SDS011;26740;45.944;12.480;2023-11-21T11:34:32;0.20;;;0.15;;
40997;SDS011;26740;45.944;12.480;2023-11-21T11:37:06;3.85;;;0.20;;
40997;SDS011;26740;45.944;12.480;2023-11-21T11:42:15;2.53;;;0.55;;
40997;SDS011;26740;45.944;12.480;2023-11-21T11:47:14;0.22;;;0.10;;
40997;SDS011;26740;45.944;12.480;2023-11-21T11:52:32;2.17;;;0.10;;
40997;SDS011;26740;45.944;12.480;2023-11-21T11:55:08;0.20;;;0.10;;
40997;SDS011;26740;45.944;12.480;2023-11-21T11:57:35;0.98;;;0.20;;
40997;SDS011;26740;45.944;12.480;2023-11-21T12:00:08;0.22;;;0.10;;
40997;SDS011;26740;45.944;12.480;2023-11-21T12:02:45;0.40;;;0.10;;
40997;SDS011;26740;45.944;12.480;2023-11-21T12:05:16;0.20;;;0.10;;
40997;SDS011;26740;45.944;12.480;2023-11-21T12:07:53;0.30;;;0.10;;
40997;SDS011;26740;45.944;12.480;2023-11-21T12:10:26;0.30;;;0.10;;
40997;SDS011;26740;45.944;12.480;2023-11-21T12:13:03;0.35;;;0.17;;
40997;SDS011;26740;45.944;12.480;2023-11-21T12:15:32;3.25;;;0.20;;
40997;SDS011;26740;45.944;12.480;2023-11-21T12:17:59;0.60;;;0.20;;
40997;SDS011;26740;45.944;12.480;2023-11-21T12:20:25;0.25;;;0.10;;
40997;SDS011;26740;45.944;12.480;2023-11-21T12:22:55;0.10;;;0.10;;
40997;SDS011;26740;45.944;12.480;2023-11-21T12:25:22;0.40;;;0.15;;
40997;SDS011;26740;45.944;12.480;2023-11-21T12:27:49;0.60;;;0.30;;
40997;SDS011;26740;45.944;12.480;2023-11-21T12:30:17;1.55;;;0.60;;
40997;SDS011;26740;45.944;12.480;2023-11-21T12:32:51;0.43;;;0.30;;
40997;SDS011;26740;45.944;12.480;2023-11-21T12:37:47;0.57;;;0.20;;
40997;SDS011;26740;45.944;12.480;2023-11-21T12:40:13;0.70;;;0.30;;
40997;SDS011;26740;45.944;12.480;2023-11-21T12:42:53;1.15;;;0.20;;
40997;SDS011;26740;45.944;12.480;2023-11-21T12:47:50;0.63;;;0.20;;
40997;SDS011;26740;45.944;12.480;2023-11-21T12:50:19;0.40;;;0.13;;
40997;SDS011;26740;45.944;12.480;2023-11-21T12:52:48;1.90;;;0.50;;
40997;SDS011;26740;45.944;12.480;2023-11-21T12:55:19;0.60;;;0.30;;
40997;SDS011;26740;45.944;12.480;2023-11-21T12:57:54;1.63;;;0.15;;
40997;SDS011;26740;45.944;12.480;2023-11-21T13:00:27;0.52;;;0.20;;
40997;SDS011;26740;45.944;12.480;2023-11-21T13:02:55;0.40;;;0.10;;
40997;SDS011;26740;45.944;12.480;2023-11-21T13:05:24;2.20;;;0.10;;
40997;SDS011;26740;45.944;12.480;2023-11-21T13:07:55;0.68;;;0.20;;
40997;SDS011;26740;45.944;12.480;2023-11-21T13:10:25;1.15;;;0.10;;
40997;SDS011;26740;45.944;12.480;2023-11-21T13:12:59;0.38;;;0.13;;
40997;SDS011;26740;45.944;12.480;2023-11-21T13:15:26;0.35;;;0.17;;
40997;SDS011;26740;45.944;12.480;2023-11-21T13:17:52;0.52;;;0.20;;
40997;SDS011;26740;45.944;12.480;2023-11-21T13:20:19;0.43;;;0.10;;
40997;SDS011;26740;45.944;12.480;2023-11-21T13:22:49;0.50;;;0.20;;
40997;SDS011;26740;45.944;12.480;2023-11-21T13:25:19;1.13;;;0.30;;
40997;SDS011;26740;45.944;12.480;2023-11-21T13:27:47;0.95;;;0.20;;
40997;SDS011;26740;45.944;12.480;2023-11-21T13:30:13;0.70;;;0.30;;
40997;SDS011;26740;45.944;12.480;2023-11-21T13:32:48;0.52;;;0.30;;
40997;SDS011;26740;45.944;12.480;2023-11-21T13:35:16;1.02;;;0.55;;
40997;SDS011;26740;45.944;12.480;2023-11-21T13:37:56;1.77;;;0.85;;
40997;SDS011;26740;45.944;12.480;2023-11-21T13:40:25;0.60;;;0.43;;
40997;SDS011;26740;45.944;12.480;2023-11-21T13:42:55;5.85;;;0.35;;
40997;SDS011;26740;45.944;12.480;2023-11-21T13:45:24;0.43;;;0.40;;
40997;SDS011;26740;45.944;12.480;2023-11-21T13:47:52;1.10;;;0.20;;
40997;SDS011;26740;45.944;12.480;2023-11-21T13:50:27;0.20;;;0.20;;
40997;SDS011;26740;45.944;12.480;2023-11-21T13:53:02;0.50;;;0.20;;
40997;SDS011;26740;45.944;12.480;2023-11-21T13:55:35;0.28;;;0.13;;
40997;SDS011;26740;45.944;12.480;2023-11-21T13:58:02;0.80;;;0.30;;
40997;SDS011;26740;45.944;12.480;2023-11-21T14:00:29;0.50;;;0.20;;
40997;SDS011;26740;45.944;12.480;2023-11-21T14:05:43;0.90;;;0.40;;
40997;SDS011;26740;45.944;12.480;2023-11-21T14:08:09;0.95;;;0.30;;
40997;SDS011;26740;45.944;12.480;2023-11-21T14:10:37;1.85;;;0.82;;
40997;SDS011;26740;45.944;12.480;2023-11-21T14:13:08;1.90;;;1.02;;
40997;SDS011;26740;45.944;12.480;2023-11-21T14:15:35;1.20;;;0.75;;
40997;SDS011;26740;45.944;12.480;2023-11-21T14:18:09;1.90;;;0.73;;
40997;SDS011;26740;45.944;12.480;2023-11-21T14:20:42;2.25;;;0.95;;
40997;SDS011;26740;45.944;12.480;2023-11-21T14:23:09;2.10;;;0.75;;
40997;SDS011;26740;45.944;12.480;2023-11-21T14:25:35;0.93;;;0.50;;
40997;SDS011;26740;45.944;12.480;2023-11-21T14:28:02;1.15;;;0.43;;
40997;SDS011;26740;45.944;12.480;2023-11-21T14:30:29;0.55;;;0.30;;
40997;SDS011;26740;45.944;12.480;2023-11-21T14:32:57;4.63;;;0.43;;
40997;SDS011;26740;45.944;12.480;2023-11-21T14:35:23;1.30;;;0.40;;
40997;SDS011;26740;45.944;12.480;2023-11-21T14:37:49;2.38;;;0.30;;
40997;SDS011;26740;45.944;12.480;2023-11-21T14:40:14;2.40;;;0.40;;
40997;SDS011;26740;45.944;12.480;2023-11-21T14:42:44;1.60;;;0.47;;
40997;SDS011;26740;45.944;12.480;2023-11-21T14:45:12;2.63;;;0.30;;
40997;SDS011;26740;45.944;12.480;2023-11-21T14:47:38;1.25;;;0.50;;
40997;SDS011;26740;45.944;12.480;2023-11-21T14:50:09;0.70;;;0.40;;
40997;SDS011;26740;45.944;12.480;2023-11-21T14:52:53;3.67;;;0.40;;
40997;SDS011;26740;45.944;12.480;2023-11-21T14:55:24;0.20;;;0.10;;
40997;SDS011;26740;45.944;12.480;2023-11-21T14:58:09;1.52;;;0.40;;